Time;durP1;ratioP1;P1;durP2;ratioP2;P2;SDS_P1;SDS_P2;PMS_P1;PMS_P2;Temp;Humidity;BMP_temperature;BMP_pressure;BME280_temperature;BME280_humidity;BME280_pressure;Samples;Min_cycle;Max_cycle;Signal;HPM_P1;HPM_P2
2021/07/03 00:01:55;;;;;;;4.77;3.20;;;;;;;22.24;100.00;97662.97;5049083;28;20193;-63
2021/07/03 00:04:22;;;;;;;4.17;3.57;;;;;;;22.27;100.00;97668.19;5032673;28;20598;-60
2021/07/03 00:06:49;;;;;;;3.97;3.57;;;;;;;22.27;100.00;97669.06;5045795;28;20223;-61
2021/07/03 00:09:16;;;;;;;3.77;3.47;;;;;;;22.15;100.00;97647.34;5065571;28;20303;-62
2021/07/03 00:11:43;;;;;;;3.97;3.57;;;;;;;22.23;100.00;97656.13;5040685;28;20224;-61
2021/07/03 00:14:10;;;;;;;3.70;3.40;;;;;;;22.29;100.00;97666.56;5033805;28;20311;-60
2021/07/03 00:16:36;;;;;;;3.37;3.07;;;;;;;22.28;100.00;97663.09;5067044;28;20220;-64
2021/07/03 00:19:03;;;;;;;4.03;3.73;;;;;;;22.29;100.00;97659.72;5061941;28;20242;-61
2021/07/03 00:21:30;;;;;;;3.63;3.33;;;;;;;22.24;100.00;97657.84;5027209;28;20203;-60
2021/07/03 00:23:57;;;;;;;4.13;3.70;;;;;;;22.29;100.00;97669.97;5049717;28;20708;-63
2021/07/03 00:26:23;;;;;;;3.63;3.37;;;;;;;22.30;100.00;97668.28;5048782;28;20236;-60
2021/07/03 00:28:50;;;;;;;3.60;3.30;;;;;;;22.29;100.00;97667.41;5053126;28;20728;-62
2021/07/03 00:31:17;;;;;;;3.63;3.33;;;;;;;22.29;100.00;97659.72;5068697;28;20235;-62
2021/07/03 00:33:44;;;;;;;3.50;3.20;;;;;;;22.30;100.00;97665.72;5068305;28;20224;-60
2021/07/03 00:36:10;;;;;;;3.37;3.07;;;;;;;22.27;100.00;97651.16;5049832;28;20613;-60
2021/07/03 00:38:37;;;;;;;3.43;3.13;;;;;;;22.30;100.00;97655.47;5051529;28;20250;-60
2021/07/03 00:41:03;;;;;;;3.50;3.20;;;;;;;22.31;100.00;97654.63;5069001;28;20635;-61
2021/07/03 00:43:30;;;;;;;3.60;3.30;;;;;;;22.30;100.00;97651.22;5068413;28;20712;-62
2021/07/03 00:45:56;;;;;;;3.60;3.30;;;;;;;22.30;100.00;97650.34;5055218;28;20193;-61
2021/07/03 00:48:23;;;;;;;3.90;3.50;;;;;;;22.11;100.00;97618.22;5052809;28;20248;-62
2021/07/03 00:50:50;;;;;;;4.20;3.73;;;;;;;22.25;100.00;97647.66;5072055;28;20338;-61
2021/07/03 00:53:16;;;;;;;3.53;3.23;;;;;;;22.21;100.00;97627.06;5054403;28;20200;-61
2021/07/03 00:55:44;;;;;;;3.40;3.10;;;;;;;22.30;100.00;97653.78;5039721;28;20248;-61
2021/07/03 00:58:11;;;;;;;4.10;3.80;;;;;;;22.32;100.00;97651.28;5034808;28;20308;-61
2021/07/03 01:00:38;;;;;;;3.47;3.17;;;;;;;22.31;100.00;97649.50;5067706;28;20722;-60
2021/07/03 01:03:04;;;;;;;3.53;3.23;;;;;;;22.31;100.00;97652.06;5074427;28;20737;-60
2021/07/03 01:05:31;;;;;;;3.23;2.93;;;;;;;22.30;100.00;97651.22;5070385;28;20234;-62
2021/07/03 01:07:57;;;;;;;3.33;3.03;;;;;;;22.29;100.00;97646.06;5071117;28;20270;-62
2021/07/03 01:10:25;;;;;;;4.00;3.33;;;;;;;22.31;100.00;97647.84;5054329;28;20354;-61
2021/07/03 01:12:52;;;;;;;3.87;3.57;;;;;;;22.30;100.00;97640.09;5066047;28;20362;-63
2021/07/03 01:15:18;;;;;;;3.70;3.40;;;;;;;22.29;100.00;97643.50;5075586;28;20220;-62
2021/07/03 01:17:46;;;;;;;4.27;3.80;;;;;;;22.30;100.00;97645.22;5071615;28;20248;-63
2021/07/03 01:20:13;;;;;;;3.77;3.43;;;;;;;22.30;100.00;97648.66;5070674;28;20203;-62
2021/07/03 01:22:40;;;;;;;3.70;3.40;;;;;;;22.13;100.00;97616.59;5068451;28;20650;-61
2021/07/03 01:25:08;;;;;;;3.40;3.10;;;;;;;22.30;100.00;97641.00;5054841;28;20215;-58
2021/07/03 01:27:34;;;;;;;3.47;3.17;;;;;;;22.30;100.00;97655.47;5076603;28;20602;-62
2021/07/03 01:30:02;;;;;;;3.33;3.03;;;;;;;22.31;100.00;97662.31;5072797;28;20197;-62
2021/07/03 01:32:29;;;;;;;4.20;3.40;;;;;;;22.24;100.00;97645.94;5074411;28;20229;-62
2021/07/03 01:34:55;;;;;;;3.37;3.07;;;;;;;22.30;100.00;97655.47;5058991;28;20665;-61
2021/07/03 01:37:22;;;;;;;4.03;3.23;;;;;;;22.31;100.00;97657.19;5071710;28;20257;-61
2021/07/03 01:39:49;;;;;;;3.47;3.17;;;;;;;22.14;100.00;97622.59;5071002;28;20732;-60
2021/07/03 01:42:16;;;;;;;3.43;2.97;;;;;;;22.30;100.00;97650.34;5073826;28;20520;-60
2021/07/03 01:44:45;;;;;;;4.23;3.00;;;;;;;22.30;100.00;97650.34;5058551;28;20246;-60
2021/07/03 01:47:11;;;;;;;3.37;3.07;;;;;;;22.16;100.00;97621.81;5059964;28;20485;-63
2021/07/03 01:49:42;;;;;;;3.67;3.37;;;;;;;22.30;100.00;97646.13;5068181;28;20235;-61
2021/07/03 01:52:09;;;;;;;3.23;2.93;;;;;;;22.25;100.00;97631.41;5074288;28;20291;-60
2021/07/03 01:54:36;;;;;;;3.57;3.27;;;;;;;22.31;100.00;97644.41;5074623;28;20307;-60
2021/07/03 01:57:02;;;;;;;3.60;3.30;;;;;;;22.30;100.00;97647.78;5062615;28;20249;-63
2021/07/03 01:59:30;;;;;;;3.37;3.00;;;;;;;22.29;100.00;97652.03;5078066;28;20245;-61
2021/07/03 02:01:57;;;;;;;3.83;3.07;;;;;;;22.29;100.00;97651.19;5079002;28;20235;-62
2021/07/03 02:04:24;;;;;;;3.50;3.20;;;;;;;22.30;100.00;97656.34;5075435;28;20225;-63
2021/07/03 02:06:51;;;;;;;3.37;3.07;;;;;;;21.87;100.00;97578.31;5072343;28;20222;-64
2021/07/03 02:09:18;;;;;;;3.00;2.80;;;;;;;22.25;100.00;97642.53;5073984;28;20246;-62
2021/07/03 02:11:45;;;;;;;3.40;3.10;;;;;;;22.29;100.00;97649.47;5064921;28;20308;-61
2021/07/03 02:14:11;;;;;;;3.43;3.13;;;;;;;22.29;100.00;97641.78;5055261;28;20230;-64
2021/07/03 02:16:38;;;;;;;3.10;2.80;;;;;;;22.30;100.00;97642.66;5056878;28;20231;-63
2021/07/03 02:19:05;;;;;;;3.10;2.90;;;;;;;22.11;100.00;97602.88;5034812;28;20221;-61
2021/07/03 02:21:32;;;;;;;3.93;3.53;;;;;;;22.24;100.00;97625.47;5039331;28;20247;-62
2021/07/03 02:23:58;;;;;;;3.43;3.13;;;;;;;22.25;100.00;97622.06;5054754;28;20299;-62
2021/07/03 02:26:25;;;;;;;3.13;2.93;;;;;;;22.28;100.00;97634.06;5055102;28;20287;-62
2021/07/03 02:28:52;;;;;;;3.10;2.90;;;;;;;22.15;100.00;97617.53;5055094;28;20251;-64
2021/07/03 02:31:19;;;;;;;3.30;3.00;;;;;;;22.30;100.00;97643.56;5066008;28;20228;-61
2021/07/03 02:33:46;;;;;;;3.17;2.97;;;;;;;22.29;100.00;97646.06;5072035;28;20208;-62
2021/07/03 02:36:12;;;;;;;3.50;3.20;;;;;;;22.27;100.00;97643.47;5055775;28;20262;-62
2021/07/03 02:38:39;;;;;;;3.20;3.00;;;;;;;22.26;100.00;97634.03;5053115;28;20262;-62
2021/07/03 02:41:05;;;;;;;3.53;3.23;;;;;;;22.30;100.00;97648.66;5036051;28;20220;-61
2021/07/03 02:43:32;;;;;;;3.27;3.03;;;;;;;22.15;100.00;97622.63;5055032;28;20247;-61
2021/07/03 02:45:59;;;;;;;3.40;3.00;;;;;;;22.30;100.00;97648.66;5028739;28;20228;-63
2021/07/03 02:48:25;;;;;;;3.50;3.20;;;;;;;22.12;100.00;97619.13;5071378;28;20250;-62
2021/07/03 02:50:52;;;;;;;3.23;2.97;;;;;;;22.30;100.00;97647.78;5029002;28;20195;-62
2021/07/03 02:53:18;;;;;;;3.20;3.00;;;;;;;22.30;100.00;97655.47;5063928;28;20235;-61
2021/07/03 02:55:45;;;;;;;3.20;3.00;;;;;;;22.30;100.00;97652.91;5063716;28;20669;-61
2021/07/03 02:58:11;;;;;;;3.13;2.83;;;;;;;22.30;100.00;97663.16;5071769;28;20243;-64
2021/07/03 03:00:38;;;;;;;2.80;2.60;;;;;;;22.14;100.00;97628.56;5067829;28;20232;-64
2021/07/03 03:03:05;;;;;;;3.00;2.80;;;;;;;22.30;100.00;97663.16;5069353;28;20246;-62
2021/07/03 03:05:31;;;;;;;2.70;2.50;;;;;;;22.31;100.00;97670.00;5066317;28;20243;-61
2021/07/03 03:07:58;;;;;;;3.00;2.80;;;;;;;22.27;100.00;97657.94;5057827;28;20257;-65
2021/07/03 03:10:24;;;;;;;3.30;3.00;;;;;;;22.31;100.00;97658.06;5048084;28;20208;-63
2021/07/03 03:12:51;;;;;;;3.27;2.97;;;;;;;22.31;100.00;97660.63;5076654;28;20283;-64
2021/07/03 03:15:18;;;;;;;3.10;2.90;;;;;;;22.31;100.00;97659.75;5076053;28;20220;-61
2021/07/03 03:17:49;;;;;;;3.30;2.93;;;;;;;22.31;100.00;97664.88;5049603;28;20216;-62
2021/07/03 03:20:16;;;;;;;3.53;3.23;;;;;;;22.32;100.00;97664.06;5072493;28;20200;-61
2021/07/03 03:22:43;;;;;;;2.93;2.73;;;;;;;22.31;100.00;97664.88;5046799;28;20632;-62
2021/07/03 03:25:10;;;;;;;3.90;2.70;;;;;;;22.32;100.00;97662.38;5065870;28;20196;-63
2021/07/03 03:27:37;;;;;;;3.30;3.00;;;;;;;22.32;100.00;97662.38;5067144;28;20339;-62
2021/07/03 03:30:05;;;;;;;3.40;3.10;;;;;;;22.31;100.00;97662.31;5048460;28;20283;-64
2021/07/03 03:32:31;;;;;;;3.40;3.10;;;;;;;22.30;100.00;97658.91;5061825;28;20251;-62
2021/07/03 03:34:58;;;;;;;3.30;3.00;;;;;;;22.31;100.00;97663.19;5067443;28;20307;-65
2021/07/03 03:37:25;;;;;;;3.13;2.93;;;;;;;22.32;100.00;97664.06;5065201;28;20757;-62
2021/07/03 03:39:51;;;;;;;4.10;2.80;;;;;;;22.29;100.00;97669.97;5073158;28;20725;-61
2021/07/03 03:42:18;;;;;;;2.90;2.70;;;;;;;22.32;100.00;97667.47;5055609;28;20240;-61
2021/07/03 03:44:44;;;;;;;3.80;3.00;;;;;;;22.32;100.00;97667.47;5053698;28;20197;-62
2021/07/03 03:47:11;;;;;;;2.90;2.70;;;;;;;22.33;100.00;97676.03;5066921;28;20200;-63
2021/07/03 03:49:38;;;;;;;2.80;2.60;;;;;;;22.33;100.00;97676.94;5054043;28;20200;-62
2021/07/03 03:52:05;;;;;;;2.80;2.60;;;;;;;22.32;100.00;97670.03;5040292;28;20289;-61
2021/07/03 03:54:31;;;;;;;2.97;2.77;;;;;;;22.30;100.00;97669.16;5063376;28;20675;-63
2021/07/03 03:59:43;;;;;;;2.90;2.70;;;;;;;22.34;100.00;97673.53;5073560;28;20231;-61
2021/07/03 04:02:09;;;;;;;2.97;2.77;;;;;;;22.33;100.00;97673.47;5060563;28;20232;-63
2021/07/03 04:04:36;;;;;;;3.03;2.83;;;;;;;22.32;100.00;97671.75;5059906;28;20215;-62
2021/07/03 04:07:03;;;;;;;2.90;2.70;;;;;;;22.31;100.00;97665.75;5050451;28;20227;-61
2021/07/03 04:09:29;;;;;;;3.13;2.93;;;;;;;22.28;100.00;97669.91;5072216;28;20290;-61
2021/07/03 04:11:56;;;;;;;3.00;2.80;;;;;;;22.12;100.00;97643.03;5047075;28;20223;-64
2021/07/03 04:14:25;;;;;;;3.17;2.97;;;;;;;22.27;100.00;97671.63;5051309;28;20193;-62
2021/07/03 04:16:52;;;;;;;3.03;2.83;;;;;;;22.18;100.00;97656.00;5064739;28;20212;-62
2021/07/03 04:19:18;;;;;;;3.67;2.90;;;;;;;22.28;100.00;97669.91;5040117;28;20526;-63
2021/07/03 04:21:45;;;;;;;2.73;2.53;;;;;;;22.28;100.00;97677.59;5075182;28;20708;-62
2021/07/03 04:24:12;;;;;;;2.97;2.73;;;;;;;22.23;100.00;97664.66;5073306;28;20650;-62
2021/07/03 04:26:38;;;;;;;2.90;2.70;;;;;;;22.28;100.00;97670.78;5083206;28;20279;-62
2021/07/03 04:29:05;;;;;;;3.03;2.83;;;;;;;22.20;100.00;97656.03;5074887;28;20305;-63
2021/07/03 04:31:31;;;;;;;3.47;2.93;;;;;;;22.28;100.00;97673.34;5075634;28;20660;-63
2021/07/03 04:33:58;;;;;;;2.87;2.67;;;;;;;22.29;100.00;97680.19;5068059;28;20689;-62
2021/07/03 04:36:25;;;;;;;2.67;2.47;;;;;;;22.26;100.00;97671.59;5077042;28;20243;-61
2021/07/03 04:38:51;;;;;;;2.90;2.70;;;;;;;22.11;100.00;97651.50;5076321;28;20651;-60
2021/07/03 04:41:18;;;;;;;2.77;2.57;;;;;;;22.28;100.00;97675.91;5074044;28;20291;-65
2021/07/03 04:43:44;;;;;;;3.00;2.80;;;;;;;22.22;100.00;97670.63;5062067;28;20231;-63
2021/07/03 04:46:11;;;;;;;2.97;2.77;;;;;;;22.25;100.00;97675.81;5065521;28;20291;-64
2021/07/03 04:48:37;;;;;;;2.70;2.50;;;;;;;22.28;100.00;97675.03;5063939;28;20242;-61
2021/07/03 04:51:04;;;;;;;3.00;2.80;;;;;;;22.27;100.00;97676.75;5080108;28;20380;-61
2021/07/03 04:53:31;;;;;;;2.70;2.50;;;;;;;22.27;100.00;97663.94;5079012;28;20912;-61
2021/07/03 04:55:57;;;;;;;2.73;2.53;;;;;;;22.26;100.00;97661.34;5065538;28;20303;-62
2021/07/03 04:58:24;;;;;;;3.10;2.90;;;;;;;22.27;100.00;97657.94;5057476;28;20247;-61
2021/07/03 05:00:50;;;;;;;2.80;2.60;;;;;;;22.26;100.00;97648.53;5064504;28;20294;-61
2021/07/03 05:03:17;;;;;;;2.80;2.60;;;;;;;22.19;100.00;97633.81;5080971;28;20227;-60
2021/07/03 05:05:43;;;;;;;3.00;2.80;;;;;;;22.26;100.00;97640.88;5041370;28;20625;-65
2021/07/03 05:08:10;;;;;;;2.97;2.77;;;;;;;22.06;100.00;97608.69;5063198;28;20251;-63
2021/07/03 05:10:37;;;;;;;3.20;2.90;;;;;;;22.25;100.00;97637.41;5062501;28;20224;-61
2021/07/03 05:13:03;;;;;;;2.87;2.67;;;;;;;22.25;100.00;97633.97;5073506;28;20211;-61
2021/07/03 05:15:30;;;;;;;2.53;2.33;;;;;;;22.25;100.00;97641.66;5081354;28;20690;-63
2021/07/03 05:17:56;;;;;;;3.30;3.00;;;;;;;22.24;100.00;97638.25;5055968;28;20251;-63
2021/07/03 05:20:23;;;;;;;4.10;2.80;;;;;;;22.25;100.00;97644.22;5072790;28;20196;-61
2021/07/03 05:22:50;;;;;;;3.40;2.87;;;;;;;22.25;100.00;97641.66;5071215;28;20199;-63
2021/07/03 05:25:16;;;;;;;3.47;3.17;;;;;;;22.24;100.00;97637.38;5080214;28;20228;-65
2021/07/03 05:27:43;;;;;;;3.50;3.20;;;;;;;22.22;100.00;97637.34;5075599;28;20274;-62
2021/07/03 05:30:10;;;;;;;4.27;3.87;;;;;;;22.20;100.00;97633.84;5073416;28;20271;-61
2021/07/03 05:32:37;;;;;;;4.23;3.83;;;;;;;22.18;100.00;97634.66;5066994;28;20669;-63
2021/07/03 05:35:05;;;;;;;4.20;3.80;;;;;;;22.17;100.00;97631.22;5073540;28;20292;-62
2021/07/03 05:37:31;;;;;;;4.80;4.37;;;;;;;22.22;100.00;97634.78;5053428;28;20898;-63
2021/07/03 05:39:58;;;;;;;4.90;4.10;;;;;;;22.22;99.63;97637.34;5076241;28;20224;-61
2021/07/03 05:42:24;;;;;;;5.17;3.90;;;;;;;22.22;99.71;97644.13;5087899;28;20262;-61
2021/07/03 05:44:51;;;;;;;4.20;3.87;;;;;;;22.21;99.72;97639.84;5068448;28;20239;-61
2021/07/03 05:47:21;;;;;;;4.60;4.13;;;;;;;22.11;99.54;97622.50;5079686;28;20227;-61
2021/07/03 05:49:48;;;;;;;5.13;4.63;;;;;;;22.09;99.54;97625.03;5050750;28;20292;-61
2021/07/03 05:52:14;;;;;;;4.93;4.43;;;;;;;22.21;99.46;97643.28;5045013;28;20193;-63
2021/07/03 05:54:41;;;;;;;5.10;4.60;;;;;;;22.19;99.35;97644.03;5072182;28;20261;-60
2021/07/03 05:57:07;;;;;;;4.90;4.40;;;;;;;22.21;99.61;97653.53;5074551;28;20255;-62
2021/07/03 05:59:34;;;;;;;5.37;4.80;;;;;;;22.20;99.22;97649.22;5073717;28;20295;-60
2021/07/03 06:02:01;;;;;;;5.37;4.57;;;;;;;22.20;99.24;97650.94;5071878;28;20284;-62
2021/07/03 06:04:27;;;;;;;5.43;4.93;;;;;;;22.19;98.87;97649.16;5076524;28;20208;-61
2021/07/03 06:06:54;;;;;;;6.07;5.43;;;;;;;22.19;99.17;97644.03;5078722;28;20282;-61
2021/07/03 06:09:20;;;;;;;5.93;5.30;;;;;;;22.19;99.09;97644.94;5079138;28;20617;-62
2021/07/03 06:11:48;;;;;;;6.00;5.20;;;;;;;22.19;99.04;97644.94;5070892;28;20577;-63
2021/07/03 06:14:15;;;;;;;7.00;5.50;;;;;;;22.18;99.18;97650.88;5070710;28;20208;-61
2021/07/03 06:16:42;;;;;;;6.20;5.60;;;;;;;22.18;98.96;97642.31;5064925;28;20259;-62
2021/07/03 06:19:10;;;;;;;6.33;5.40;;;;;;;22.19;99.09;97651.72;5062474;28;20220;-62
2021/07/03 06:21:36;;;;;;;5.80;5.30;;;;;;;22.18;99.01;97647.44;5058129;28;20253;-61
2021/07/03 06:24:03;;;;;;;5.53;5.03;;;;;;;22.19;99.16;97646.59;5063167;28;20285;-62
2021/07/03 06:26:29;;;;;;;8.20;5.90;;;;;;;22.19;99.05;97644.03;5072765;28;20195;-62
2021/07/03 06:28:56;;;;;;;6.90;5.70;;;;;;;22.16;99.37;97637.16;5072016;28;20251;-60
2021/07/03 06:31:23;;;;;;;8.73;5.90;;;;;;;22.18;99.03;97637.22;5052736;28;20223;-62
2021/07/03 06:33:50;;;;;;;6.17;5.57;;;;;;;22.18;99.13;97639.75;5067223;28;20200;-60
2021/07/03 06:36:16;;;;;;;5.83;5.30;;;;;;;22.15;99.16;97627.75;5050572;28;20285;-61
2021/07/03 06:38:43;;;;;;;6.47;5.87;;;;;;;22.17;99.22;97636.31;5069757;28;20302;-62
2021/07/03 06:41:09;;;;;;;7.53;5.33;;;;;;;22.18;99.01;97634.66;5070601;28;20622;-63
2021/07/03 06:43:37;;;;;;;5.87;5.27;;;;;;;22.18;99.32;97630.41;5065619;28;20714;-62
2021/07/03 06:46:04;;;;;;;5.57;5.07;;;;;;;22.19;99.28;97637.25;5067418;28;20572;-62
2021/07/03 06:48:35;;;;;;;6.03;5.27;;;;;;;22.20;99.45;97638.13;5060661;28;20247;-62
2021/07/03 06:51:02;;;;;;;6.57;5.40;;;;;;;21.98;99.38;97597.38;5072369;28;20331;-62
2021/07/03 06:53:29;;;;;;;6.00;5.40;;;;;;;22.15;99.64;97617.53;5058092;28;20221;-60
2021/07/03 06:55:59;;;;;;;7.07;5.43;;;;;;;22.19;99.42;97621.88;5038708;28;20212;-62
2021/07/03 06:58:25;;;;;;;5.90;5.30;;;;;;;22.19;99.77;97619.34;5040528;28;20250;-62
2021/07/03 07:00:52;;;;;;;6.33;5.70;;;;;;;22.19;99.70;97621.88;5058923;28;20852;-61
2021/07/03 07:03:18;;;;;;;6.43;5.80;;;;;;;22.20;99.48;97633.84;5066703;28;20640;-61
2021/07/03 07:05:45;;;;;;;6.10;5.50;;;;;;;22.20;99.75;97627.88;5055446;28;20205;-62
2021/07/03 07:08:11;;;;;;;7.07;5.60;;;;;;;22.19;100.00;97621.88;5065035;28;20270;-61
2021/07/03 07:10:38;;;;;;;6.93;5.43;;;;;;;22.20;99.54;97625.31;5065438;28;20286;-61
2021/07/03 07:13:06;;;;;;;6.13;5.00;;;;;;;22.21;99.67;97614.25;5063052;28;20279;-61
2021/07/03 07:15:33;;;;;;;5.90;5.33;;;;;;;21.32;99.53;97469.22;5075749;28;20287;-61
2021/07/03 07:18:00;;;;;;;8.03;6.03;;;;;;;22.21;99.81;97621.94;5051801;28;20239;-61
2021/07/03 07:20:26;;;;;;;6.37;5.20;;;;;;;22.21;99.80;97617.69;5065887;28;20196;-61
2021/07/03 07:22:53;;;;;;;6.10;5.07;;;;;;;22.21;99.59;97617.69;5066521;28;20201;-62
2021/07/03 07:25:19;;;;;;;5.40;4.90;;;;;;;22.21;99.73;97614.25;5069319;28;20840;-61
2021/07/03 07:27:46;;;;;;;6.60;4.90;;;;;;;22.21;99.81;97616.81;5066459;28;20292;-62
2021/07/03 07:30:13;;;;;;;5.70;5.20;;;;;;;22.21;99.92;97615.13;5069028;28;20232;-61
2021/07/03 07:32:40;;;;;;;6.33;5.30;;;;;;;22.16;99.79;97600.44;5067165;28;20223;-61
2021/07/03 07:35:07;;;;;;;5.90;5.30;;;;;;;22.21;99.93;97609.13;5057647;28;20197;-61
2021/07/03 07:37:34;;;;;;;5.27;4.87;;;;;;;22.21;100.00;97606.56;5072680;28;20678;-62
2021/07/03 07:40:00;;;;;;;5.43;4.93;;;;;;;22.20;99.79;97604.84;5059332;28;20230;-62
2021/07/03 07:42:29;;;;;;;5.87;5.27;;;;;;;22.20;99.68;97598.00;5059673;28;20608;-62
2021/07/03 07:44:55;;;;;;;5.17;4.67;;;;;;;22.19;100.00;97598.84;5000327;28;20196;-61
2021/07/03 07:47:23;;;;;;;5.63;5.13;;;;;;;22.17;100.00;97590.25;5053012;28;20304;-61
2021/07/03 07:49:49;;;;;;;5.40;4.90;;;;;;;22.12;100.00;97580.72;5053120;28;20873;-60
2021/07/03 07:52:16;;;;;;;5.87;5.27;;;;;;;22.20;99.99;97587.78;5041808;28;20577;-61
2021/07/03 07:54:43;;;;;;;6.00;5.40;;;;;;;22.20;99.87;97582.66;5046604;28;20206;-61
2021/07/03 07:57:09;;;;;;;6.10;5.20;;;;;;;22.20;99.97;97585.22;5054788;28;20307;-60
2021/07/03 07:59:36;;;;;;;6.37;5.37;;;;;;;22.08;100.00;97558.44;5051355;28;20192;-59
2021/07/03 08:02:03;;;;;;;5.83;5.17;;;;;;;22.19;100.00;97572.38;5043623;28;20292;-61
2021/07/03 08:04:29;;;;;;;6.67;5.07;;;;;;;22.14;99.97;97568.84;5031896;28;20193;-61
2021/07/03 08:06:56;;;;;;;5.60;5.10;;;;;;;22.21;100.00;97586.09;5011679;28;20255;-62
2021/07/03 08:09:23;;;;;;;6.03;5.43;;;;;;;22.21;100.00;97579.28;5063331;28;20294;-62
2021/07/03 08:11:49;;;;;;;5.93;5.33;;;;;;;22.18;100.00;97570.66;5046705;28;20228;-62
2021/07/03 08:14:16;;;;;;;6.10;5.50;;;;;;;22.22;100.00;97575.00;5043549;28;20298;-61
2021/07/03 08:16:42;;;;;;;7.03;5.90;;;;;;;22.22;100.00;97580.13;5061481;28;20580;-62
2021/07/03 08:19:09;;;;;;;9.93;5.20;;;;;;;22.22;100.00;97572.47;5065158;28;20239;-63
2021/07/03 08:21:36;;;;;;;6.30;5.30;;;;;;;22.22;100.00;97572.47;5045848;28;20240;-61
2021/07/03 08:24:03;;;;;;;5.67;4.90;;;;;;;22.21;100.00;97579.28;5060893;28;20303;-62
2021/07/03 08:26:29;;;;;;;5.57;5.07;;;;;;;22.22;100.00;97575.00;5066916;28;20225;-62
2021/07/03 08:28:56;;;;;;;6.57;5.10;;;;;;;22.22;100.00;97573.34;5068558;28;20236;-61
2021/07/03 08:31:22;;;;;;;5.33;4.83;;;;;;;22.18;100.00;97566.41;5063854;28;20283;-62
2021/07/03 08:33:49;;;;;;;6.00;5.40;;;;;;;22.22;100.00;97569.91;5029465;28;20201;-60
2021/07/03 08:36:16;;;;;;;7.57;4.67;;;;;;;22.23;100.00;97569.94;5013276;28;20196;-62
2021/07/03 08:38:42;;;;;;;5.40;4.90;;;;;;;22.21;100.00;97557.94;5064866;28;20319;-62
2021/07/03 08:41:11;;;;;;;5.30;4.80;;;;;;;22.23;100.00;97562.25;5038102;28;20236;-63
2021/07/03 08:43:49;;;;;;;6.07;5.47;;;;;;;22.19;100.00;97549.34;5064157;28;20231;-62
2021/07/03 08:46:19;;;;;;;5.87;5.23;;;;;;;22.08;100.00;97525.16;5038205;28;20224;-60
2021/07/03 08:48:47;;;;;;;5.70;4.90;;;;;;;22.22;100.00;97552.84;5005636;28;20763;-62
2021/07/03 08:51:13;;;;;;;6.70;4.80;;;;;;;22.22;100.00;97547.72;5029374;28;20197;-62
2021/07/03 08:53:40;;;;;;;5.30;4.63;;;;;;;22.23;100.00;97540.94;5057995;28;20231;-61
2021/07/03 08:56:06;;;;;;;5.63;4.80;;;;;;;22.17;100.00;97527.97;5060218;28;20244;-62
2021/07/03 08:58:33;;;;;;;6.17;5.57;;;;;;;22.24;100.00;97532.41;5055635;28;20580;-63
2021/07/03 09:01:05;;;;;;;5.37;4.87;;;;;;;22.21;100.00;97530.66;5056242;28;20624;-62
2021/07/03 09:03:31;;;;;;;5.63;4.53;;;;;;;22.22;100.00;97532.38;5037184;28;20868;-62
2021/07/03 09:06:00;;;;;;;5.37;4.87;;;;;;;22.22;100.00;97537.50;5057363;28;20228;-61
2021/07/03 09:08:27;;;;;;;5.07;4.60;;;;;;;22.23;100.00;97535.81;5042885;28;20308;-62
2021/07/03 09:11:09;;;;;;;9.83;5.37;;;;;;;22.22;100.00;97534.06;5025371;28;20224;-61
2021/07/03 09:13:37;;;;;;;5.30;4.87;;;;;;;22.23;100.00;97533.25;5056685;28;20236;-61
2021/07/03 09:16:04;;;;;;;6.63;4.87;;;;;;;22.23;100.00;97535.81;5032424;28;20193;-61
2021/07/03 09:18:32;;;;;;;5.73;4.73;;;;;;;22.24;100.00;97534.97;5068747;28;20224;-61
2021/07/03 09:21:08;;;;;;;7.47;4.93;;;;;;;22.24;100.00;97540.97;5042216;28;20212;-63
2021/07/03 09:23:36;;;;;;;4.73;4.33;;;;;;;22.24;100.00;97537.53;5060431;28;20224;-61
2021/07/03 09:26:04;;;;;;;6.90;4.97;;;;;;;22.24;100.00;97543.53;5064194;28;20753;-62
2021/07/03 09:28:32;;;;;;;5.80;5.00;;;;;;;22.20;100.00;97533.16;5050630;28;20258;-61
2021/07/03 09:31:00;;;;;;;7.43;4.73;;;;;;;22.22;100.00;97534.94;5066685;28;20201;-62
2021/07/03 09:33:31;;;;;;;5.87;5.17;;;;;;;22.23;100.00;97523.00;5063939;28;20196;-63
2021/07/03 09:36:08;;;;;;;5.57;4.80;;;;;;;22.17;100.00;97516.00;5067257;28;20640;-62
2021/07/03 09:38:41;;;;;;;5.40;4.90;;;;;;;22.24;100.00;97527.28;5050224;28;20309;-62
2021/07/03 09:41:08;;;;;;;4.90;4.30;;;;;;;22.24;100.00;97530.72;5067685;28;20192;-62
2021/07/03 09:43:34;;;;;;;5.27;4.77;;;;;;;22.24;100.00;97533.28;5065681;28;20240;-62
2021/07/03 09:46:01;;;;;;;7.13;4.33;;;;;;;22.24;100.00;97530.72;5063445;28;20280;-62
2021/07/03 09:48:28;;;;;;;5.57;4.87;;;;;;;22.24;100.00;97527.28;5076500;28;20213;-60
2021/07/03 09:50:54;;;;;;;7.97;5.13;;;;;;;22.25;100.00;97532.44;5048312;28;20200;-62
2021/07/03 09:53:21;;;;;;;4.90;4.23;;;;;;;22.17;100.00;97522.84;5045779;28;20246;-61
2021/07/03 09:55:47;;;;;;;6.50;4.93;;;;;;;22.18;100.00;97514.34;5048107;28;20295;-61
2021/07/03 09:58:14;;;;;;;5.00;3.93;;;;;;;22.17;100.00;97507.50;5049897;28;20227;-62
2021/07/03 10:00:41;;;;;;;5.17;4.67;;;;;;;22.23;100.00;97518.72;5048123;28;20228;-61
2021/07/03 10:03:08;;;;;;;7.73;4.27;;;;;;;22.25;100.00;97522.22;5064166;28;20258;-61
2021/07/03 10:05:39;;;;;;;5.03;4.50;;;;;;;22.26;100.00;97518.81;5069415;28;20224;-61
2021/07/03 10:08:08;;;;;;;6.27;4.67;;;;;;;22.15;100.00;97497.22;5047381;28;20319;-62
2021/07/03 10:10:35;;;;;;;4.70;4.27;;;;;;;22.16;100.00;97488.69;5050212;28;20246;-61
2021/07/03 10:13:07;;;;;;;4.80;4.40;;;;;;;22.27;100.00;97510.34;5033445;28;20223;-64
2021/07/03 10:15:35;;;;;;;5.10;4.43;;;;;;;22.27;100.00;97507.78;5062734;28;20200;-62
2021/07/03 10:18:15;;;;;;;4.60;4.20;;;;;;;22.29;100.00;97507.81;5067274;28;20220;-63
2021/07/03 10:20:43;;;;;;;4.73;4.17;;;;;;;22.10;100.00;97474.84;5052100;28;20287;-62
2021/07/03 10:23:10;;;;;;;5.77;4.80;;;;;;;22.28;100.00;97501.81;5030185;28;20324;-62
2021/07/03 10:25:44;;;;;;;5.10;4.60;;;;;;;22.28;100.00;97485.56;5048866;28;20795;-61
2021/07/03 10:28:12;;;;;;;4.57;4.07;;;;;;;22.29;100.00;97492.44;5052250;28;20260;-62
2021/07/03 10:30:49;;;;;;;4.60;4.20;;;;;;;22.29;100.00;97485.63;5033459;28;20236;-62
2021/07/03 10:33:19;;;;;;;4.23;3.83;;;;;;;22.29;100.00;97484.78;5055311;28;20314;-61
2021/07/03 10:35:54;;;;;;;7.27;4.30;;;;;;;22.29;100.00;97488.16;5062062;28;20281;-62
2021/07/03 10:38:40;;;;;;;4.43;4.03;;;;;;;22.29;100.00;97480.50;5059686;28;20227;-61
2021/07/03 10:41:10;;;;;;;5.13;4.63;;;;;;;22.28;100.00;97478.78;5018537;28;20674;-62
2021/07/03 10:43:43;;;;;;;4.43;4.03;;;;;;;22.30;100.00;97483.94;5040497;28;20226;-61
2021/07/03 10:46:10;;;;;;;5.50;4.70;;;;;;;22.24;100.00;97473.53;5055496;28;20292;-62
2021/07/03 10:48:36;;;;;;;4.70;4.30;;;;;;;22.25;100.00;97467.56;5022270;28;20266;-61
2021/07/03 10:51:11;;;;;;;6.20;4.23;;;;;;;22.30;100.00;97474.56;5054360;28;20291;-62
2021/07/03 10:53:37;;;;;;;5.00;4.43;;;;;;;22.30;100.00;97471.13;5053024;28;20358;-62
2021/07/03 10:56:14;;;;;;;4.20;3.90;;;;;;;22.30;100.00;97466.88;5044377;28;20235;-62
2021/07/03 10:58:42;;;;;;;4.37;3.97;;;;;;;22.30;100.00;97466.88;5067189;28;20776;-63
2021/07/03 11:01:10;;;;;;;4.50;4.10;;;;;;;22.31;100.00;97463.50;5068026;28;20200;-61
2021/07/03 11:03:43;;;;;;;5.73;4.73;;;;;;;22.31;100.00;97466.03;5054480;28;20232;-59
2021/07/03 11:06:20;;;;;;;5.40;4.57;;;;;;;22.21;100.00;97448.72;5055943;28;20288;-59
2021/07/03 11:08:51;;;;;;;4.77;4.37;;;;;;;22.29;100.00;97465.13;5007533;28;20664;-59
2021/07/03 11:11:18;;;;;;;4.63;4.23;;;;;;;22.31;100.00;97467.72;5021161;28;20572;-59
2021/07/03 11:13:46;;;;;;;4.43;4.03;;;;;;;22.31;100.00;97460.03;5027622;28;20549;-59
2021/07/03 11:16:13;;;;;;;4.07;3.77;;;;;;;22.31;100.00;97460.03;5033774;28;20279;-59
2021/07/03 11:18:44;;;;;;;5.57;4.67;;;;;;;22.26;100.00;97443.72;5063452;28;20693;-60
2021/07/03 11:21:13;;;;;;;4.17;3.77;;;;;;;22.31;100.00;97452.38;5068095;28;20689;-60
2021/07/03 11:23:39;;;;;;;4.63;4.23;;;;;;;22.31;100.00;97447.25;5067461;28;20287;-58
2021/07/03 11:26:13;;;;;;;5.03;4.50;;;;;;;22.30;100.00;97440.41;5064946;28;20279;-59
2021/07/03 11:28:39;;;;;;;5.17;4.10;;;;;;;21.93;100.00;97369.50;5158896;22;20223;-66
2021/07/03 11:31:06;;;;;;;4.20;3.80;;;;;;;22.18;100.00;97411.94;5051300;28;20231;-70